Time;durP1;ratioP1;P1;durP2;ratioP2;P2;SDS_P1;SDS_P2;PMS_P1;PMS_P2;Temp;Humidity;BMP_temperature;BMP_pressure;BME280_temperature;BME280_humidity;BME280_pressure;Samples;Min_cycle;Max_cycle;Signal;HPM_P1;HPM_P2
2023/06/18 00:02:00;;;;;;;18.70;12.40;;;;;;;;;;5035655;28;20049;-80
2023/06/18 00:04:27;;;;;;;16.67;10.90;;;;;;;;;;5036819;28;20041;-79
2023/06/18 00:06:54;;;;;;;15.52;10.95;;;;;;;;;;5031223;28;20065;-79
2023/06/18 00:09:21;;;;;;;18.17;11.15;;;;;;;;;;5029259;28;20045;-80
2023/06/18 00:11:48;;;;;;;17.15;11.20;;;;;;;;;;5027782;28;20104;-80
2023/06/18 00:14:15;;;;;;;17.20;11.05;;;;;;;;;;5029617;28;20107;-79
2023/06/18 00:16:42;;;;;;;16.05;10.38;;;;;;;;;;5031494;28;20107;-77
2023/06/18 00:19:09;;;;;;;15.82;10.05;;;;;;;;;;5029795;28;20079;-78
2023/06/18 00:21:35;;;;;;;15.45;10.05;;;;;;;;;;5029957;28;20053;-79
2023/06/18 00:24:03;;;;;;;14.52;9.88;;;;;;;;;;5029783;28;20064;-78
2023/06/18 00:26:29;;;;;;;14.93;10.38;;;;;;;;;;5033006;28;20041;-78
2023/06/18 00:28:56;;;;;;;16.88;10.48;;;;;;;;;;5033230;28;20092;-81
2023/06/18 00:31:25;;;;;;;17.02;10.63;;;;;;;;;;5037867;28;20044;-80
2023/06/18 00:33:53;;;;;;;18.27;10.90;;;;;;;;;;5035163;28;20044;-78
2023/06/18 00:36:20;;;;;;;14.73;10.43;;;;;;;;;;5034860;28;20402;-78
2023/06/18 00:38:47;;;;;;;18.27;10.70;;;;;;;;;;5015464;28;20045;-79
2023/06/18 00:41:13;;;;;;;14.88;10.63;;;;;;;;;;5030430;28;20112;-77
2023/06/18 00:43:40;;;;;;;16.48;10.00;;;;;;;;;;5034626;28;20042;-79
2023/06/18 00:46:10;;;;;;;14.38;10.43;;;;;;;;;;5033656;28;20041;-80
2023/06/18 00:48:37;;;;;;;15.82;10.27;;;;;;;;;;5017140;28;20042;-79
2023/06/18 00:51:05;;;;;;;14.82;10.02;;;;;;;;;;5031049;28;20063;-79
2023/06/18 00:53:32;;;;;;;17.67;10.63;;;;;;;;;;5032677;28;20103;-78
2023/06/18 00:55:59;;;;;;;14.40;9.65;;;;;;;;;;5032221;28;20095;-78
2023/06/18 00:58:31;;;;;;;15.00;10.52;;;;;;;;;;5029982;28;20820;-78
2023/06/18 01:00:59;;;;;;;17.38;10.15;;;;;;;;;;5014788;28;20459;-78
2023/06/18 01:03:26;;;;;;;17.45;10.27;;;;;;;;;;5030594;28;20050;-79
2023/06/18 01:05:57;;;;;;;16.63;10.50;;;;;;;;;;5019493;28;20060;-79
2023/06/18 01:08:25;;;;;;;14.30;10.05;;;;;;;;;;5032518;28;20057;-80
2023/06/18 01:11:00;;;;;;;16.25;10.32;;;;;;;;;;5033834;28;20056;-79
2023/06/18 01:13:30;;;;;;;19.17;11.63;;;;;;;;;;5036259;28;20164;-78
2023/06/18 01:16:03;;;;;;;19.48;12.35;;;;;;;;;;5030257;28;20071;-79
2023/06/18 01:18:35;;;;;;;18.27;11.85;;;;;;;;;;5027852;28;20496;-80
2023/06/18 01:21:09;;;;;;;18.27;11.70;;;;;;;;;;5043504;28;20421;-79
2023/06/18 01:23:49;;;;;;;18.98;12.25;;;;;;;;;;5037286;28;20045;-80
2023/06/18 01:26:20;;;;;;;19.08;11.88;;;;;;;;;;5033690;28;20064;-79
2023/06/18 01:28:51;;;;;;;20.33;12.77;;;;;;;;;;5020647;28;20021;-78
2023/06/18 01:31:22;;;;;;;18.58;12.13;;;;;;;;;;5046376;28;20042;-78
2023/06/18 01:33:53;;;;;;;22.02;12.88;;;;;;;;;;5032609;28;20121;-78
2023/06/18 01:36:37;;;;;;;17.67;11.93;;;;;;;;;;5022516;28;20053;-80
2023/06/18 01:39:16;;;;;;;21.42;11.98;;;;;;;;;;5013317;28;20048;-79
2023/06/18 01:41:46;;;;;;;17.65;11.45;;;;;;;;;;5029494;28;20156;-79
2023/06/18 01:44:18;;;;;;;19.67;11.90;;;;;;;;;;5014705;28;20088;-80
2023/06/18 01:46:47;;;;;;;22.30;11.40;;;;;;;;;;5015960;28;20041;-80
2023/06/18 01:49:15;;;;;;;18.15;11.32;;;;;;;;;;5013561;28;20140;-79
2023/06/18 01:51:42;;;;;;;18.83;11.68;;;;;;;;;;5013515;28;20053;-79
2023/06/18 01:54:09;;;;;;;21.25;11.85;;;;;;;;;;5015330;28;20705;-79
2023/06/18 01:56:36;;;;;;;22.42;12.68;;;;;;;;;;5023773;28;20151;-80
2023/06/18 01:59:03;;;;;;;21.15;11.80;;;;;;;;;;5035450;28;20733;-79
2023/06/18 02:01:31;;;;;;;17.25;11.63;;;;;;;;;;5025671;28;20077;-79
2023/06/18 02:03:57;;;;;;;18.80;12.38;;;;;;;;;;5033211;28;20055;-78
2023/06/18 02:06:24;;;;;;;19.42;13.13;;;;;;;;;;5029931;28;20083;-78
2023/06/18 02:08:51;;;;;;;20.67;13.32;;;;;;;;;;5031125;28;20091;-77
2023/06/18 02:11:19;;;;;;;17.35;12.63;;;;;;;;;;5028820;28;20041;-78
2023/06/18 02:13:46;;;;;;;21.95;12.82;;;;;;;;;;5016649;28;20073;-79
2023/06/18 02:16:13;;;;;;;19.50;12.07;;;;;;;;;;5034139;28;20045;-79
2023/06/18 02:18:40;;;;;;;20.75;12.77;;;;;;;;;;5031676;28;20049;-79
2023/06/18 02:21:07;;;;;;;15.23;10.95;;;;;;;;;;5030681;28;20061;-80
2023/06/18 02:23:34;;;;;;;18.45;11.27;;;;;;;;;;5033596;28;20099;-79
2023/06/18 02:26:01;;;;;;;16.48;10.32;;;;;;;;;;5031838;28;20041;-78
2023/06/18 02:28:28;;;;;;;16.08;10.48;;;;;;;;;;5028062;28;20089;-78
2023/06/18 02:30:55;;;;;;;17.27;11.35;;;;;;;;;;5034175;28;20457;-78
2023/06/18 02:33:22;;;;;;;16.25;10.50;;;;;;;;;;5031954;28;20080;-78
2023/06/18 02:35:49;;;;;;;15.95;9.82;;;;;;;;;;5031364;28;20045;-78
2023/06/18 02:38:16;;;;;;;17.50;10.10;;;;;;;;;;5030429;28;20460;-78
2023/06/18 02:40:42;;;;;;;15.27;9.70;;;;;;;;;;5027307;28;20148;-78
2023/06/18 02:43:09;;;;;;;18.15;10.23;;;;;;;;;;5012967;28;20056;-80
2023/06/18 02:45:36;;;;;;;16.48;9.57;;;;;;;;;;5030078;28;20053;-78
2023/06/18 02:48:03;;;;;;;18.38;10.13;;;;;;;;;;5029176;28;20545;-80
2023/06/18 02:50:30;;;;;;;18.55;10.05;;;;;;;;;;5028565;28;20057;-78
2023/06/18 02:52:56;;;;;;;15.05;10.05;;;;;;;;;;5027560;28;20045;-78
2023/06/18 02:55:23;;;;;;;18.60;11.20;;;;;;;;;;5027233;28;20045;-79
2023/06/18 02:57:50;;;;;;;22.02;11.85;;;;;;;;;;5029410;28;20398;-78
2023/06/18 03:00:19;;;;;;;17.48;10.63;;;;;;;;;;5026778;28;20052;-77
2023/06/18 03:02:47;;;;;;;18.15;10.90;;;;;;;;;;5029843;28;20072;-77
2023/06/18 03:05:23;;;;;;;18.60;11.80;;;;;;;;;;5031578;28;20115;-79
2023/06/18 03:07:51;;;;;;;18.58;11.55;;;;;;;;;;5034890;28;20128;-80
2023/06/18 03:10:18;;;;;;;18.20;10.90;;;;;;;;;;5016390;28;20105;-79
2023/06/18 03:12:48;;;;;;;16.63;11.50;;;;;;;;;;5032178;28;20042;-79
2023/06/18 03:15:37;;;;;;;17.70;10.43;;;;;;;;;;5036935;28;20041;-80
2023/06/18 03:18:05;;;;;;;17.92;10.23;;;;;;;;;;5042114;28;20049;-80
2023/06/18 03:20:33;;;;;;;14.63;10.13;;;;;;;;;;5041865;28;20064;-79
2023/06/18 03:22:59;;;;;;;17.10;10.23;;;;;;;;;;5039959;28;20052;-79
2023/06/18 03:25:26;;;;;;;18.98;10.23;;;;;;;;;;5038653;28;20063;-80
2023/06/18 03:27:53;;;;;;;20.58;11.38;;;;;;;;;;5034785;28;20057;-80
2023/06/18 03:30:22;;;;;;;16.77;11.05;;;;;;;;;;5038219;28;20052;-80
2023/06/18 03:32:50;;;;;;;17.92;11.15;;;;;;;;;;5033848;28;20049;-80
2023/06/18 03:35:18;;;;;;;18.45;11.55;;;;;;;;;;5033729;28;20056;-80
2023/06/18 03:37:46;;;;;;;21.10;12.52;;;;;;;;;;5016289;28;20052;-79
2023/06/18 03:40:12;;;;;;;17.27;11.43;;;;;;;;;;5032354;28;20053;-79
2023/06/18 03:42:40;;;;;;;26.80;13.13;;;;;;;;;;5016966;28;20050;-80
2023/06/18 03:45:07;;;;;;;16.52;11.60;;;;;;;;;;5016911;28;20042;-79
2023/06/18 03:47:34;;;;;;;17.50;11.23;;;;;;;;;;5015817;28;20063;-78
2023/06/18 03:50:02;;;;;;;20.38;10.05;;;;;;;;;;5030812;28;20120;-78
2023/06/18 03:52:28;;;;;;;16.05;10.10;;;;;;;;;;5031707;28;20045;-79
2023/06/18 03:55:01;;;;;;;16.58;10.25;;;;;;;;;;5032736;28;20455;-79
2023/06/18 03:57:27;;;;;;;16.85;9.82;;;;;;;;;;5017132;28;20045;-79
2023/06/18 03:59:55;;;;;;;14.50;9.48;;;;;;;;;;5034623;28;20068;-79
2023/06/18 04:02:21;;;;;;;18.42;9.25;;;;;;;;;;5036055;28;20042;-79
2023/06/18 04:04:49;;;;;;;18.23;9.60;;;;;;;;;;5037414;28;20065;-78
2023/06/18 04:07:15;;;;;;;13.52;8.98;;;;;;;;;;5035122;28;20049;-80
2023/06/18 04:09:42;;;;;;;15.88;9.13;;;;;;;;;;5033583;28;20376;-79
2023/06/18 04:12:09;;;;;;;14.05;8.77;;;;;;;;;;5028923;28;20037;-78
2023/06/18 04:14:36;;;;;;;13.63;8.43;;;;;;;;;;5029984;28;20460;-78
2023/06/18 04:17:03;;;;;;;17.30;8.80;;;;;;;;;;5029676;28;20042;-79
2023/06/18 04:19:32;;;;;;;17.48;8.82;;;;;;;;;;5028533;28;20124;-78
2023/06/18 04:21:58;;;;;;;14.65;9.15;;;;;;;;;;5030197;28;20068;-79
2023/06/18 04:24:29;;;;;;;19.73;9.38;;;;;;;;;;5036118;28;20042;-79
2023/06/18 04:26:56;;;;;;;17.52;9.32;;;;;;;;;;5036861;28;20061;-78
2023/06/18 04:29:22;;;;;;;16.83;9.27;;;;;;;;;;5037632;28;20045;-79
2023/06/18 04:31:50;;;;;;;18.27;9.95;;;;;;;;;;5036032;28;20049;-79
2023/06/18 04:34:17;;;;;;;18.65;10.68;;;;;;;;;;5034432;28;20053;-80
2023/06/18 04:36:43;;;;;;;16.30;10.30;;;;;;;;;;5033317;28;20080;-79
2023/06/18 04:39:11;;;;;;;15.60;10.57;;;;;;;;;;5032625;28;20510;-79
2023/06/18 04:41:38;;;;;;;18.60;11.20;;;;;;;;;;5032637;28;20109;-79
2023/06/18 04:44:05;;;;;;;21.00;12.07;;;;;;;;;;5035532;28;20041;-79
2023/06/18 04:46:32;;;;;;;22.00;11.80;;;;;;;;;;5036624;28;20049;-79
2023/06/18 04:49:00;;;;;;;18.25;11.60;;;;;;;;;;5030813;28;20037;-78
2023/06/18 04:51:29;;;;;;;18.38;12.15;;;;;;;;;;5030225;28;20045;-79
2023/06/18 04:53:56;;;;;;;21.52;11.88;;;;;;;;;;5034265;28;20057;-80
2023/06/18 04:56:23;;;;;;;17.33;10.88;;;;;;;;;;5034459;28;20037;-79
2023/06/18 04:58:50;;;;;;;16.38;11.00;;;;;;;;;;5034462;28;20050;-79
2023/06/18 05:01:16;;;;;;;17.70;11.20;;;;;;;;;;5033854;28;20053;-79
2023/06/18 05:03:44;;;;;;;18.33;11.45;;;;;;;;;;5034069;28;20201;-80
2023/06/18 05:06:11;;;;;;;17.70;11.10;;;;;;;;;;5035268;28;20045;-79
2023/06/18 05:08:38;;;;;;;19.50;10.57;;;;;;;;;;5033630;28;20045;-80
2023/06/18 05:11:05;;;;;;;16.98;10.65;;;;;;;;;;5025120;28;20037;-79
2023/06/18 05:13:34;;;;;;;16.38;10.50;;;;;;;;;;5023985;28;20045;-79
2023/06/18 05:16:00;;;;;;;15.85;9.90;;;;;;;;;;5034780;28;20068;-80
2023/06/18 05:18:28;;;;;;;13.75;9.40;;;;;;;;;;5034077;28;20045;-79
2023/06/18 05:20:55;;;;;;;15.38;9.80;;;;;;;;;;5033398;28;20096;-77
2023/06/18 05:23:23;;;;;;;17.00;9.55;;;;;;;;;;5034090;28;20510;-79
2023/06/18 05:25:50;;;;;;;14.50;9.30;;;;;;;;;;5034878;28;20514;-80
2023/06/18 05:28:19;;;;;;;14.00;9.15;;;;;;;;;;5029991;28;20252;-78
2023/06/18 05:30:46;;;;;;;14.25;8.80;;;;;;;;;;5028997;28;20042;-78
2023/06/18 05:33:14;;;;;;;13.63;9.02;;;;;;;;;;5035549;28;20648;-79
2023/06/18 05:35:45;;;;;;;13.18;8.80;;;;;;;;;;5025344;28;20490;-78
2023/06/18 05:38:11;;;;;;;11.77;8.75;;;;;;;;;;5023964;28;20053;-77
2023/06/18 05:40:38;;;;;;;14.25;9.02;;;;;;;;;;5023769;28;20038;-77
2023/06/18 05:43:06;;;;;;;13.95;8.52;;;;;;;;;;5031419;28;20132;-77
2023/06/18 05:45:40;;;;;;;14.57;9.35;;;;;;;;;;5025107;28;20064;-78
2023/06/18 05:48:11;;;;;;;15.93;8.15;;;;;;;;;;5025215;28;20133;-77
2023/06/18 05:51:04;;;;;;;12.82;8.27;;;;;;;;;;5020073;28;20045;-79
2023/06/18 05:53:32;;;;;;;10.77;7.72;;;;;;;;;;5023719;28;20061;-77
2023/06/18 05:55:59;;;;;;;12.30;7.97;;;;;;;;;;5024962;28;20845;-78
2023/06/18 05:58:26;;;;;;;11.73;7.65;;;;;;;;;;5019160;28;20042;-80
2023/06/18 06:00:53;;;;;;;12.07;7.70;;;;;;;;;;5044846;28;20536;-79
2023/06/18 06:03:20;;;;;;;13.98;7.35;;;;;;;;;;5044075;28;20048;-77
2023/06/18 06:05:47;;;;;;;9.98;7.47;;;;;;;;;;5027832;28;20632;-76
2023/06/18 06:08:13;;;;;;;13.25;7.15;;;;;;;;;;5017843;28;20141;-78
2023/06/18 06:10:44;;;;;;;13.18;8.20;;;;;;;;;;5017443;28;20387;-78
2023/06/18 06:13:11;;;;;;;13.52;8.07;;;;;;;;;;5018458;28;20809;-78
2023/06/18 06:15:39;;;;;;;11.20;7.50;;;;;;;;;;5022228;28;20480;-78
2023/06/18 06:18:06;;;;;;;14.38;7.30;;;;;;;;;;5024133;28;20079;-78
2023/06/18 06:20:33;;;;;;;10.30;7.40;;;;;;;;;;5002673;28;20091;-78
2023/06/18 06:22:59;;;;;;;11.32;7.60;;;;;;;;;;5022308;28;20099;-78
2023/06/18 06:25:26;;;;;;;15.57;8.25;;;;;;;;;;5018819;28;20041;-80
2023/06/18 06:27:53;;;;;;;10.25;7.30;;;;;;;;;;5024806;28;20060;-78
2023/06/18 06:30:19;;;;;;;11.18;7.47;;;;;;;;;;5026384;28;20095;-78
2023/06/18 06:32:47;;;;;;;9.18;6.43;;;;;;;;;;5031841;28;20464;-79
2023/06/18 06:35:13;;;;;;;11.43;6.95;;;;;;;;;;5045106;28;20060;-79
2023/06/18 06:37:41;;;;;;;9.15;6.43;;;;;;;;;;5033570;28;20859;-78
2023/06/18 06:40:08;;;;;;;11.63;6.40;;;;;;;;;;5023541;28;20048;-78
2023/06/18 06:42:36;;;;;;;10.50;6.28;;;;;;;;;;5024785;28;20107;-78
2023/06/18 06:45:39;;;;;;;10.40;6.50;;;;;;;;;;4963844;28;20047;-80
2023/06/18 06:48:12;;;;;;;9.57;6.45;;;;;;;;;;5023336;28;20061;-78
2023/06/18 06:50:50;;;;;;;8.98;6.13;;;;;;;;;;5017900;28;20056;-79
2023/06/18 06:53:23;;;;;;;10.98;5.90;;;;;;;;;;5031858;28;20049;-77
2023/06/18 06:55:50;;;;;;;8.40;6.32;;;;;;;;;;5023713;28;20414;-79
2023/06/18 06:58:20;;;;;;;9.38;6.47;;;;;;;;;;5008316;28;20069;-78
2023/06/18 07:00:47;;;;;;;10.75;6.15;;;;;;;;;;5020841;28;20045;-79
2023/06/18 07:03:14;;;;;;;8.85;5.82;;;;;;;;;;5035354;28;20053;-78
2023/06/18 07:05:40;;;;;;;9.60;6.43;;;;;;;;;;5026479;28;20044;-78
2023/06/18 07:08:08;;;;;;;9.80;6.10;;;;;;;;;;5014324;28;20071;-79
2023/06/18 07:10:34;;;;;;;10.00;6.57;;;;;;;;;;5035368;28;20048;-78
2023/06/18 07:13:01;;;;;;;10.13;6.80;;;;;;;;;;5047207;28;20116;-79
2023/06/18 07:15:28;;;;;;;9.15;6.47;;;;;;;;;;5046821;28;20435;-77
2023/06/18 07:17:54;;;;;;;9.48;6.38;;;;;;;;;;5038451;28;20057;-80
2023/06/18 07:20:21;;;;;;;8.73;6.07;;;;;;;;;;5025807;28;20046;-77
2023/06/18 07:22:48;;;;;;;11.30;6.82;;;;;;;;;;5024801;28;20132;-79
2023/06/18 07:25:15;;;;;;;15.82;6.32;;;;;;;;;;5019032;28;20056;-78
2023/06/18 07:27:42;;;;;;;9.50;6.72;;;;;;;;;;5025568;28;20050;-76
2023/06/18 07:30:08;;;;;;;10.15;7.13;;;;;;;;;;5024830;28;20068;-80
2023/06/18 07:32:35;;;;;;;13.43;7.10;;;;;;;;;;5029422;28;20069;-81
2023/06/18 07:35:02;;;;;;;12.38;6.45;;;;;;;;;;5029912;28;20048;-80
2023/06/18 07:37:28;;;;;;;12.88;6.90;;;;;;;;;;5033561;28;20045;-79
2023/06/18 07:39:55;;;;;;;13.52;7.05;;;;;;;;;;5034185;28;20107;-81
2023/06/18 07:42:21;;;;;;;10.20;6.93;;;;;;;;;;5037027;28;20061;-80
2023/06/18 07:44:48;;;;;;;11.25;7.15;;;;;;;;;;5040277;28;20444;-82
2023/06/18 07:47:15;;;;;;;10.70;7.10;;;;;;;;;;5021903;28;20058;-79
2023/06/18 07:49:41;;;;;;;10.10;7.07;;;;;;;;;;5014553;28;20112;-81
2023/06/18 07:52:08;;;;;;;9.13;7.18;;;;;;;;;;5017033;28;20059;-81
2023/06/18 07:54:35;;;;;;;11.73;7.70;;;;;;;;;;5032759;28;20042;-80
2023/06/18 07:57:02;;;;;;;10.95;7.28;;;;;;;;;;5035443;28;20049;-80
2023/06/18 07:59:29;;;;;;;11.30;7.05;;;;;;;;;;5034386;28;20045;-80
2023/06/18 08:01:56;;;;;;;12.48;7.55;;;;;;;;;;5034662;28;20037;-77
2023/06/18 08:04:23;;;;;;;11.73;7.50;;;;;;;;;;5033140;28;20045;-79
2023/06/18 08:06:50;;;;;;;9.23;6.97;;;;;;;;;;5033132;28;20092;-79
2023/06/18 08:09:17;;;;;;;10.52;7.07;;;;;;;;;;5032023;28;20324;-78
2023/06/18 08:11:44;;;;;;;10.40;6.90;;;;;;;;;;5033857;28;20109;-80
2023/06/18 08:14:11;;;;;;;14.63;7.20;;;;;;;;;;5035869;28;20061;-79
2023/06/18 08:16:38;;;;;;;10.68;7.93;;;;;;;;;;5033711;28;20627;-80
2023/06/18 08:19:05;;;;;;;11.80;7.57;;;;;;;;;;5032474;28;20079;-80
2023/06/18 08:21:31;;;;;;;11.70;7.22;;;;;;;;;;5033930;28;20041;-80
2023/06/18 08:23:58;;;;;;;8.82;6.30;;;;;;;;;;5036342;28;20052;-81
2023/06/18 08:26:25;;;;;;;11.13;6.60;;;;;;;;;;5034968;28;20124;-80
2023/06/18 08:28:51;;;;;;;10.70;7.55;;;;;;;;;;5036212;28;20064;-79
2023/06/18 08:31:20;;;;;;;10.88;6.85;;;;;;;;;;5044091;28;20065;-79
2023/06/18 08:33:48;;;;;;;9.68;6.63;;;;;;;;;;5039976;28;20060;-79
2023/06/18 08:36:18;;;;;;;10.35;6.93;;;;;;;;;;5029477;28;20099;-80
2023/06/18 08:38:44;;;;;;;9.52;7.18;;;;;;;;;;5035347;28;20045;-80
2023/06/18 08:41:11;;;;;;;9.80;6.90;;;;;;;;;;5035246;28;20501;-80
2023/06/18 08:43:38;;;;;;;9.32;7.00;;;;;;;;;;5037265;28;20414;-78
2023/06/18 08:46:11;;;;;;;9.30;6.47;;;;;;;;;;5021449;28;20041;-77
2023/06/18 08:48:41;;;;;;;10.07;6.78;;;;;;;;;;5037124;28;20046;-78
2023/06/18 08:51:09;;;;;;;13.88;6.72;;;;;;;;;;5036613;28;20044;-78
2023/06/18 08:53:44;;;;;;;12.85;6.97;;;;;;;;;;5035849;28;20366;-78
2023/06/18 08:56:13;;;;;;;11.40;7.78;;;;;;;;;;5032027;28;20052;-78
2023/06/18 08:58:47;;;;;;;8.25;6.22;;;;;;;;;;5033826;28;20435;-79
2023/06/18 09:01:14;;;;;;;8.32;6.25;;;;;;;;;;5034551;28;20046;-80
2023/06/18 09:03:41;;;;;;;9.98;7.05;;;;;;;;;;5033354;28;20064;-80
2023/06/18 09:06:09;;;;;;;9.55;6.20;;;;;;;;;;5035060;28;20105;-79
2023/06/18 09:08:36;;;;;;;10.82;6.68;;;;;;;;;;5032870;28;20084;-79
2023/06/18 09:11:03;;;;;;;8.93;6.07;;;;;;;;;;5030775;28;20041;-80
2023/06/18 09:13:34;;;;;;;10.20;5.93;;;;;;;;;;5032139;28;20081;-79
2023/06/18 09:16:03;;;;;;;10.07;6.43;;;;;;;;;;5032766;28;20048;-79
2023/06/18 09:18:30;;;;;;;9.23;5.90;;;;;;;;;;5032960;28;20033;-80
2023/06/18 09:20:57;;;;;;;8.13;6.05;;;;;;;;;;5030837;28;20049;-79
2023/06/18 09:23:26;;;;;;;9.15;5.45;;;;;;;;;;5031540;28;20052;-79
2023/06/18 09:25:54;;;;;;;10.02;6.07;;;;;;;;;;5031599;28;20474;-79
2023/06/18 09:28:26;;;;;;;10.18;6.00;;;;;;;;;;5032443;28;20057;-78
2023/06/18 09:30:58;;;;;;;9.23;5.72;;;;;;;;;;5038748;28;20428;-79
2023/06/18 09:33:28;;;;;;;8.48;5.93;;;;;;;;;;5008870;28;20061;-79
2023/06/18 09:36:13;;;;;;;9.75;5.57;;;;;;;;;;5012224;28;20104;-79
2023/06/18 09:38:41;;;;;;;11.88;5.22;;;;;;;;;;5026799;28;20092;-80
2023/06/18 09:41:16;;;;;;;7.70;5.32;;;;;;;;;;5010443;28;20100;-80
2023/06/18 09:43:45;;;;;;;11.35;5.80;;;;;;;;;;5020191;28;20042;-79
2023/06/18 09:46:12;;;;;;;9.48;5.45;;;;;;;;;;5020891;28;20075;-80
2023/06/18 09:48:40;;;;;;;10.68;5.30;;;;;;;;;;5029587;28;20435;-79
2023/06/18 09:51:07;;;;;;;8.88;5.20;;;;;;;;;;5030624;28;20065;-79
2023/06/18 09:53:34;;;;;;;7.50;4.90;;;;;;;;;;5034426;28;20061;-80
2023/06/18 09:56:14;;;;;;;7.63;5.10;;;;;;;;;;5016973;28;20073;-80
2023/06/18 09:58:46;;;;;;;9.18;5.32;;;;;;;;;;5029597;28;20049;-79
2023/06/18 10:01:16;;;;;;;7.78;5.13;;;;;;;;;;5029882;28;20124;-79
2023/06/18 10:03:45;;;;;;;6.20;4.70;;;;;;;;;;5031478;28;20595;-80
2023/06/18 10:06:19;;;;;;;10.68;5.15;;;;;;;;;;5031793;28;20046;-79
2023/06/18 10:08:46;;;;;;;10.27;4.70;;;;;;;;;;5028918;28;20042;-80
2023/06/18 10:11:13;;;;;;;7.35;5.38;;;;;;;;;;5029804;28;20561;-80
2023/06/18 10:13:43;;;;;;;7.68;5.50;;;;;;;;;;5031287;28;20064;-77
2023/06/18 10:16:12;;;;;;;9.60;5.07;;;;;;;;;;5032511;28;20045;-79
2023/06/18 10:18:56;;;;;;;6.53;4.90;;;;;;;;;;5032299;28;20045;-80
2023/06/18 10:21:23;;;;;;;7.68;5.40;;;;;;;;;;5022037;28;20057;-79
2023/06/18 10:23:53;;;;;;;6.18;5.15;;;;;;;;;;5040295;28;20049;-79
2023/06/18 10:26:21;;;;;;;6.72;5.45;;;;;;;;;;5023315;28;20072;-79
2023/06/18 10:28:48;;;;;;;8.63;5.57;;;;;;;;;;5038705;28;20041;-79
2023/06/18 10:31:16;;;;;;;8.50;5.32;;;;;;;;;;5035234;28;20077;-79
2023/06/18 10:33:42;;;;;;;7.32;4.63;;;;;;;;;;5028773;28;20137;-79
2023/06/18 10:36:12;;;;;;;7.63;5.25;;;;;;;;;;5031051;28;20472;-79
2023/06/18 10:38:38;;;;;;;7.93;5.60;;;;;;;;;;5025927;28;20121;-79
2023/06/18 10:41:13;;;;;;;8.50;5.97;;;;;;;;;;5030184;28;20041;-78
2023/06/18 10:43:42;;;;;;;7.00;5.05;;;;;;;;;;5028961;28;20069;-79
2023/06/18 10:46:13;;;;;;;7.28;5.32;;;;;;;;;;5031029;28;20068;-80
2023/06/18 10:48:41;;;;;;;7.22;5.05;;;;;;;;;;5012693;28;20056;-81
2023/06/18 10:51:19;;;;;;;7.60;5.35;;;;;;;;;;5029124;28;20239;-80
2023/06/18 10:53:46;;;;;;;10.45;5.60;;;;;;;;;;5031436;28;20045;-81
2023/06/18 10:56:16;;;;;;;6.97;5.40;;;;;;;;;;5031103;28;20045;-79
2023/06/18 10:58:42;;;;;;;8.10;5.13;;;;;;;;;;5030800;28;20049;-79
2023/06/18 11:01:25;;;;;;;8.65;5.63;;;;;;;;;;5031005;28;20069;-79
2023/06/18 11:04:05;;;;;;;6.78;5.07;;;;;;;;;;5033045;28;20051;-80
2023/06/18 11:06:31;;;;;;;11.55;5.43;;;;;;;;;;5031936;28;20077;-79
2023/06/18 11:08:58;;;;;;;7.50;4.90;;;;;;;;;;5029220;28;20596;-80
2023/06/18 11:11:30;;;;;;;7.40;5.63;;;;;;;;;;5028351;28;20112;-79
2023/06/18 11:13:57;;;;;;;8.93;5.90;;;;;;;;;;5029744;28;20148;-79
2023/06/18 11:16:23;;;;;;;6.05;5.45;;;;;;;;;;5030158;28;20470;-80
2023/06/18 11:18:53;;;;;;;9.32;5.65;;;;;;;;;;5028706;28;20072;-80
2023/06/18 11:21:20;;;;;;;7.82;5.13;;;;;;;;;;5025362;28;20056;-79
2023/06/18 11:23:47;;;;;;;7.75;5.25;;;;;;;;;;5019478;28;20042;-79
2023/06/18 11:26:17;;;;;;;7.00;5.57;;;;;;;;;;5027408;28;20053;-79
2023/06/18 11:28:50;;;;;;;7.68;5.35;;;;;;;;;;5017362;28;20049;-79
2023/06/18 11:31:16;;;;;;;8.20;4.75;;;;;;;;;;5026851;28;20049;-79
2023/06/18 11:33:49;;;;;;;11.38;5.40;;;;;;;;;;5027502;28;20560;-79
2023/06/18 11:36:17;;;;;;;7.22;5.20;;;;;;;;;;5025653;28;20257;-80
2023/06/18 11:38:47;;;;;;;10.93;5.05;;;;;;;;;;5023233;28;20591;-80
2023/06/18 11:41:19;;;;;;;7.75;5.05;;;;;;;;;;5023627;28;20099;-79
2023/06/18 11:43:46;;;;;;;6.38;5.18;;;;;;;;;;5025635;28;20309;-81
2023/06/18 11:46:25;;;;;;;6.38;5.45;;;;;;;;;;5026497;28;20053;-78
2023/06/18 11:48:54;;;;;;;13.27;5.28;;;;;;;;;;5028250;28;20048;-81
2023/06/18 11:51:22;;;;;;;7.15;5.40;;;;;;;;;;5016545;28;20562;-79
2023/06/18 11:53:48;;;;;;;12.75;5.47;;;;;;;;;;5004279;28;20072;-79
2023/06/18 11:56:15;;;;;;;6.65;5.30;;;;;;;;;;5008470;28;20076;-80
2023/06/18 11:58:42;;;;;;;14.95;5.03;;;;;;;;;;5009400;28;20057;-79
2023/06/18 12:01:08;;;;;;;7.60;5.57;;;;;;;;;;5011183;28;20128;-77
2023/06/18 12:03:35;;;;;;;6.85;5.35;;;;;;;;;;5027459;28;20041;-78
2023/06/18 12:06:12;;;;;;;9.88;5.13;;;;;;;;;;5029408;28;20056;-79
2023/06/18 12:08:43;;;;;;;6.00;4.63;;;;;;;;;;5026523;28;20041;-80
2023/06/18 12:11:42;;;;;;;8.82;5.32;;;;;;;;;;5019167;28;20041;-80
2023/06/18 12:14:12;;;;;;;5.63;5.00;;;;;;;;;;5020890;28;20108;-81
2023/06/18 12:16:41;;;;;;;8.02;5.15;;;;;;;;;;5020597;28;20540;-80
2023/06/18 12:19:10;;;;;;;10.00;5.35;;;;;;;;;;5023215;28;20046;-79
2023/06/18 12:21:40;;;;;;;6.18;5.32;;;;;;;;;;5027229;28;20053;-80
2023/06/18 12:24:06;;;;;;;7.07;4.95;;;;;;;;;;5018790;28;20726;-79
2023/06/18 12:26:33;;;;;;;6.90;4.78;;;;;;;;;;5029929;28;20049;-79
2023/06/18 12:29:01;;;;;;;6.38;4.70;;;;;;;;;;5022394;28;20589;-77
2023/06/18 12:31:28;;;;;;;7.03;4.82;;;;;;;;;;5027964;28;20525;-79
2023/06/18 12:33:54;;;;;;;7.90;5.00;;;;;;;;;;5028585;28;20117;-79
2023/06/18 12:36:27;;;;;;;9.30;5.10;;;;;;;;;;5010746;28;20056;-78
2023/06/18 12:38:54;;;;;;;5.25;4.63;;;;;;;;;;5007705;28;20054;-79
2023/06/18 12:41:26;;;;;;;7.30;4.95;;;;;;;;;;5008352;28;20053;-79
2023/06/18 12:43:52;;;;;;;4.95;4.45;;;;;;;;;;5009066;28;20069;-79
2023/06/18 12:46:23;;;;;;;5.03;4.53;;;;;;;;;;5000228;28;20045;-79
2023/06/18 12:48:50;;;;;;;6.50;4.97;;;;;;;;;;5022562;28;20104;-79
2023/06/18 12:51:17;;;;;;;7.28;4.85;;;;;;;;;;5029988;28;20056;-78
2023/06/18 12:53:43;;;;;;;8.18;4.15;;;;;;;;;;5026669;28;20037;-79
2023/06/18 12:56:22;;;;;;;6.55;5.15;;;;;;;;;;5028179;28;20045;-79
2023/06/18 12:58:51;;;;;;;6.25;4.70;;;;;;;;;;5029145;28;20045;-79
2023/06/18 13:01:18;;;;;;;5.20;4.70;;;;;;;;;;5027585;28;20564;-80
2023/06/18 13:03:45;;;;;;;9.50;5.28;;;;;;;;;;5028664;28;20045;-78
2023/06/18 13:06:12;;;;;;;7.55;5.00;;;;;;;;;;5028936;28;20117;-79
2023/06/18 13:08:39;;;;;;;6.45;5.30;;;;;;;;;;5028747;28;20061;-79
2023/06/18 13:11:06;;;;;;;7.03;4.72;;;;;;;;;;5025881;28;20045;-79
2023/06/18 13:13:33;;;;;;;7.68;4.88;;;;;;;;;;5027374;28;20449;-78
2023/06/18 13:16:02;;;;;;;6.55;4.93;;;;;;;;;;5025773;28;20053;-79
2023/06/18 13:18:29;;;;;;;5.70;4.82;;;;;;;;;;5028760;28;20052;-79
2023/06/18 13:20:58;;;;;;;6.35;4.80;;;;;;;;;;5010101;28;20095;-80
2023/06/18 13:23:25;;;;;;;8.98;4.80;;;;;;;;;;5026822;28;20107;-79
2023/06/18 13:25:53;;;;;;;5.85;5.00;;;;;;;;;;5027513;28;20581;-78
2023/06/18 13:28:19;;;;;;;9.65;4.85;;;;;;;;;;5028468;28;20068;-79
2023/06/18 13:30:47;;;;;;;7.63;4.63;;;;;;;;;;5031985;28;20128;-78
2023/06/18 13:33:13;;;;;;;5.70;4.80;;;;;;;;;;5026811;28;20156;-77
2023/06/18 13:35:40;;;;;;;6.03;4.50;;;;;;;;;;5027872;28;20057;-77
2023/06/18 13:38:08;;;;;;;7.13;4.55;;;;;;;;;;5027439;28;20137;-80
2023/06/18 13:40:34;;;;;;;4.72;4.22;;;;;;;;;;5024555;28;20042;-78
2023/06/18 13:43:01;;;;;;;6.07;4.75;;;;;;;;;;5028695;28;20041;-80
2023/06/18 13:45:28;;;;;;;5.03;4.53;;;;;;;;;;5028404;28;20478;-78
2023/06/18 13:47:55;;;;;;;7.10;4.40;;;;;;;;;;5029554;28;20033;-79
2023/06/18 13:50:22;;;;;;;5.15;4.65;;;;;;;;;;5026804;28;20107;-79
2023/06/18 13:52:49;;;;;;;7.38;4.90;;;;;;;;;;5028236;28;20083;-80
2023/06/18 13:55:16;;;;;;;6.43;4.32;;;;;;;;;;5026909;28;20123;-78
2023/06/18 13:57:42;;;;;;;5.32;4.15;;;;;;;;;;5017804;28;20143;-80
2023/06/18 14:00:09;;;;;;;4.93;4.43;;;;;;;;;;5027544;28;20071;-79
2023/06/18 14:02:36;;;;;;;8.77;4.95;;;;;;;;;;5028806;28;20033;-80
2023/06/18 14:05:06;;;;;;;6.97;4.78;;;;;;;;;;5027323;28;20065;-78
2023/06/18 14:07:33;;;;;;;5.75;4.32;;;;;;;;;;5026217;28;20489;-80
2023/06/18 14:10:00;;;;;;;5.30;4.20;;;;;;;;;;5025773;28;20041;-79
2023/06/18 14:12:27;;;;;;;6.10;4.10;;;;;;;;;;5027115;28;20509;-79
2023/06/18 14:14:55;;;;;;;5.53;4.20;;;;;;;;;;5038150;28;20033;-78
2023/06/18 14:17:23;;;;;;;6.47;4.38;;;;;;;;;;5024346;28;20048;-79
2023/06/18 14:19:50;;;;;;;5.35;4.15;;;;;;;;;;5026622;28;20045;-79
2023/06/18 14:22:16;;;;;;;5.15;4.45;;;;;;;;;;5028099;28;20064;-79
2023/06/18 14:24:43;;;;;;;5.28;4.30;;;;;;;;;;5027628;28;20045;-77
2023/06/18 14:27:10;;;;;;;7.80;4.47;;;;;;;;;;5028214;28;20037;-78
2023/06/18 14:29:36;;;;;;;8.45;5.20;;;;;;;;;;5032528;28;20037;-81
2023/06/18 14:32:03;;;;;;;5.47;4.65;;;;;;;;;;5027717;28;20045;-77
2023/06/18 14:34:29;;;;;;;5.47;4.38;;;;;;;;;;5027977;28;20063;-80
2023/06/18 14:36:57;;;;;;;4.57;3.97;;;;;;;;;;5026765;28;20501;-79
2023/06/18 14:39:23;;;;;;;5.03;4.00;;;;;;;;;;5027123;28;20057;-79